Time;durP1;ratioP1;P1;durP2;ratioP2;P2;SDS_P1;SDS_P2;PMS_P1;PMS_P2;Temp;Humidity;BMP_temperature;BMP_pressure;BME280_temperature;BME280_humidity;BME280_pressure;Samples;Min_cycle;Max_cycle;Signal;HPM_P1;HPM_P2
2022/01/02 00:00:22;;;;;;;9.43;6.07;;;5.50;99.90;;;;;;5034460;28;21318;-78
2022/01/02 00:02:55;;;;;;;8.53;5.60;;;5.60;99.90;;;;;;5032798;28;20435;-77
2022/01/02 00:05:22;;;;;;;8.80;5.77;;;5.60;99.90;;;;;;5031749;28;20419;-77
2022/01/02 00:08:02;;;;;;;8.90;5.97;;;5.60;99.90;;;;;;5031705;28;20842;-77
2022/01/02 00:10:32;;;;;;;8.90;5.93;;;5.60;99.90;;;;;;5031886;28;20416;-77
2022/01/02 00:13:00;;;;;;;7.53;5.60;;;5.50;99.90;;;;;;5031839;28;20407;-78
2022/01/02 00:15:26;;;;;;;7.67;5.80;;;5.50;99.90;;;;;;5029938;28;20411;-77
2022/01/02 00:17:54;;;;;;;8.83;5.60;;;5.50;99.90;;;;;;5031239;28;20917;-77
2022/01/02 00:20:31;;;;;;;5.83;4.67;;;5.40;99.90;;;;;;5029672;28;20477;-77
2022/01/02 00:22:59;;;;;;;7.20;4.30;;;5.40;99.90;;;;;;5029966;28;20481;-78
2022/01/02 00:25:30;;;;;;;6.83;4.23;;;5.40;99.90;;;;;;5029939;28;20496;-77
2022/01/02 00:27:58;;;;;;;6.87;4.17;;;5.50;99.90;;;;;;5031398;28;20470;-78
2022/01/02 00:30:25;;;;;;;6.23;4.10;;;5.60;99.90;;;;;;5031249;28;20473;-77
2022/01/02 00:32:51;;;;;;;7.50;4.90;;;5.60;99.90;;;;;;5033285;28;20420;-76
2022/01/02 00:35:17;;;;;;;5.43;4.33;;;5.50;99.90;;;;;;5032705;28;20426;-78
2022/01/02 00:37:43;;;;;;;7.00;4.20;;;5.40;99.90;;;;;;5031650;28;20423;-78
2022/01/02 00:40:09;;;;;;;7.40;4.37;;;5.40;99.90;;;;;;5031540;28;20201;-77
2022/01/02 00:42:38;;;;;;;6.93;4.13;;;5.30;99.90;;;;;;5031570;28;20192;-77
2022/01/02 00:45:24;;;;;;;6.97;5.03;;;5.20;99.90;;;;;;5031322;28;20573;-77
2022/01/02 00:48:13;;;;;;;8.43;5.00;;;5.30;99.90;;;;;;5033281;28;20464;-78
2022/01/02 00:50:46;;;;;;;10.07;5.30;;;5.40;99.90;;;;;;5032051;28;20431;-78
2022/01/02 00:53:16;;;;;;;8.37;5.40;;;5.60;99.90;;;;;;5032402;28;20442;-78
2022/01/02 00:55:43;;;;;;;8.57;5.90;;;5.40;99.90;;;;;;5030930;28;20452;-78
2022/01/02 00:58:14;;;;;;;7.87;5.73;;;5.40;99.90;;;;;;5031980;28;20782;-77
2022/01/02 01:00:51;;;;;;;8.27;5.67;;;5.40;99.90;;;;;;5032224;28;20435;-78
2022/01/02 01:03:23;;;;;;;10.13;5.50;;;5.40;99.90;;;;;;5030693;28;20425;-77
2022/01/02 01:05:52;;;;;;;9.50;5.77;;;5.40;99.90;;;;;;5031735;28;20415;-77
2022/01/02 01:08:19;;;;;;;7.90;5.80;;;5.30;99.90;;;;;;5028679;28;20471;-78
2022/01/02 01:10:45;;;;;;;10.93;5.30;;;5.40;99.90;;;;;;5031829;28;20779;-78
2022/01/02 01:13:11;;;;;;;8.43;4.90;;;5.10;99.90;;;;;;5030956;28;20424;-78
2022/01/02 01:15:38;;;;;;;8.07;5.00;;;5.00;99.90;;;;;;5015023;28;20203;-78
2022/01/02 01:18:04;;;;;;;10.10;6.10;;;5.10;99.90;;;;;;5031166;28;20431;-78
2022/01/02 01:20:42;;;;;;;9.40;6.47;;;4.90;99.90;;;;;;5014618;28;20423;-78
2022/01/02 01:23:16;;;;;;;14.40;7.40;;;4.90;99.90;;;;;;5030867;28;20415;-77
2022/01/02 01:25:46;;;;;;;12.03;6.73;;;4.80;99.90;;;;;;5031107;28;20419;-78
2022/01/02 01:28:13;;;;;;;12.63;6.67;;;4.90;99.90;;;;;;5013701;28;20479;-78
2022/01/02 01:30:39;;;;;;;7.00;5.30;;;4.80;99.90;;;;;;5029370;28;20427;-77
2022/01/02 01:33:05;;;;;;;8.10;5.37;;;4.80;99.90;;;;;;5031069;28;20441;-77
2022/01/02 01:35:31;;;;;;;10.80;6.40;;;4.80;99.90;;;;;;5030958;28;20188;-77
2022/01/02 01:37:56;;;;;;;12.93;7.60;;;4.80;99.90;;;;;;5031032;28;20218;-78
2022/01/02 01:40:22;;;;;;;11.87;7.37;;;4.90;99.90;;;;;;5030774;28;20798;-77
2022/01/02 01:43:03;;;;;;;11.70;6.47;;;5.00;99.90;;;;;;5030829;28;20278;-78
2022/01/02 01:45:30;;;;;;;11.67;6.60;;;5.30;99.90;;;;;;5031038;28;20518;-77
2022/01/02 01:48:02;;;;;;;13.87;7.73;;;5.10;99.90;;;;;;5029239;28;20466;-78
2022/01/02 01:50:30;;;;;;;9.33;6.27;;;5.10;99.90;;;;;;5031378;28;20435;-79
2022/01/02 01:52:57;;;;;;;12.37;6.60;;;5.10;99.90;;;;;;5031853;28;21171;-78
2022/01/02 01:55:22;;;;;;;11.47;6.87;;;5.10;99.90;;;;;;5031519;28;20411;-78
2022/01/02 01:57:51;;;;;;;14.60;8.80;;;5.00;99.90;;;;;;5031725;28;21067;-78
2022/01/02 02:00:19;;;;;;;13.80;7.33;;;4.90;99.90;;;;;;5030816;28;21020;-78
2022/01/02 02:02:45;;;;;;;13.00;7.63;;;5.20;99.90;;;;;;5033624;28;20502;-77
2022/01/02 02:05:12;;;;;;;10.70;7.30;;;5.20;99.90;;;;;;5032714;28;20447;-77
2022/01/02 02:07:43;;;;;;;10.97;6.83;;;5.40;99.90;;;;;;5031136;28;20228;-78
2022/01/02 02:10:28;;;;;;;14.37;8.40;;;5.40;99.90;;;;;;5032497;28;20438;-78
2022/01/02 02:12:56;;;;;;;11.00;7.40;;;5.30;99.90;;;;;;5031186;28;20426;-79
2022/01/02 02:15:22;;;;;;;10.80;7.07;;;5.30;99.90;;;;;;5014377;28;20423;-77
2022/01/02 02:17:49;;;;;;;10.97;7.27;;;5.30;99.90;;;;;;5030548;28;20423;-77
2022/01/02 02:20:17;;;;;;;12.40;6.97;;;5.30;99.90;;;;;;5029560;28;20482;-79
2022/01/02 02:22:47;;;;;;;15.43;6.83;;;5.10;99.90;;;;;;5031079;28;20415;-76
2022/01/02 02:25:17;;;;;;;13.13;6.10;;;5.10;99.90;;;;;;5029935;28;20481;-77
2022/01/02 02:27:51;;;;;;;8.00;5.90;;;5.00;99.90;;;;;;5029623;28;20471;-76
2022/01/02 02:30:17;;;;;;;10.00;6.07;;;4.90;99.90;;;;;;5028402;28;20453;-77
2022/01/02 02:32:43;;;;;;;8.00;6.00;;;4.90;99.90;;;;;;5029647;28;20422;-76
2022/01/02 02:35:09;;;;;;;5.50;4.53;;;5.00;99.90;;;;;;5029434;28;20415;-77
2022/01/02 02:37:41;;;;;;;9.23;5.10;;;4.80;99.90;;;;;;5029654;28;20653;-77
2022/01/02 02:40:08;;;;;;;9.73;5.20;;;4.80;99.90;;;;;;5029628;28;20224;-77
2022/01/02 02:43:03;;;;;;;8.37;5.10;;;4.80;99.90;;;;;;5030308;28;20454;-77
2022/01/02 02:51:18;;;;;;;6.30;4.50;;;4.60;99.90;;;;;;5030011;28;20581;-77
2022/01/02 02:53:46;;;;;;;10.33;4.40;;;4.60;99.90;;;;;;5028832;28;20426;-79
2022/01/02 02:58:45;;;;;;;7.67;4.87;;;4.50;99.90;;;;;;5031308;28;20435;-78
2022/01/02 03:01:14;;;;;;;7.50;4.07;;;4.50;99.90;;;;;;5032661;28;20433;-80
2022/01/02 03:03:41;;;;;;;7.23;3.63;;;4.50;99.90;;;;;;5032395;28;20415;-79
2022/01/02 03:06:07;;;;;;;6.60;3.93;;;4.50;99.90;;;;;;5030671;28;20423;-78
2022/01/02 03:08:35;;;;;;;8.33;3.63;;;4.60;99.90;;;;;;5032015;28;20432;-78
2022/01/02 03:11:01;;;;;;;5.87;3.80;;;4.50;99.90;;;;;;5030873;28;20456;-78
2022/01/02 03:13:26;;;;;;;5.93;4.10;;;4.50;99.90;;;;;;5029543;28;20987;-78
2022/01/02 03:15:52;;;;;;;7.20;4.27;;;4.50;99.90;;;;;;5028998;28;20425;-78
2022/01/02 03:18:18;;;;;;;4.77;4.00;;;4.50;99.90;;;;;;5028988;28;20206;-77
2022/01/02 03:20:43;;;;;;;5.57;3.93;;;4.50;99.90;;;;;;5028919;28;20289;-77
2022/01/02 03:23:09;;;;;;;7.60;3.80;;;4.60;99.90;;;;;;5028476;28;20192;-77
2022/01/02 03:25:35;;;;;;;6.53;3.87;;;4.50;99.90;;;;;;5010788;28;20188;-78
2022/01/02 03:28:00;;;;;;;5.53;3.87;;;4.50;99.90;;;;;;5028834;28;20311;-78
2022/01/02 03:30:26;;;;;;;4.87;4.07;;;4.40;99.90;;;;;;5028714;28;20182;-78
2022/01/02 03:32:52;;;;;;;5.23;3.77;;;4.50;99.90;;;;;;5031010;28;20610;-78
2022/01/02 03:35:17;;;;;;;5.40;3.63;;;4.40;99.90;;;;;;5033167;28;20180;-77
2022/01/02 03:37:43;;;;;;;7.60;4.00;;;4.40;99.90;;;;;;5015580;28;20427;-79
2022/01/02 03:40:10;;;;;;;10.13;3.90;;;4.40;99.90;;;;;;5033060;28;20200;-77
2022/01/02 03:42:37;;;;;;;5.93;3.83;;;4.40;99.90;;;;;;5034805;28;20212;-77
2022/01/02 03:45:04;;;;;;;4.83;3.80;;;4.40;99.90;;;;;;5033433;28;20411;-78
2022/01/02 03:47:30;;;;;;;5.47;4.10;;;4.50;99.90;;;;;;5031400;28;20466;-78
2022/01/02 03:49:57;;;;;;;4.67;3.63;;;4.40;99.90;;;;;;5032445;28;20457;-78
2022/01/02 03:52:24;;;;;;;4.60;3.40;;;4.30;99.90;;;;;;5031648;28;20192;-77
2022/01/02 03:54:50;;;;;;;5.93;4.37;;;4.30;99.90;;;;;;5033864;28;20940;-78
2022/01/02 03:57:15;;;;;;;4.17;3.20;;;4.20;99.90;;;;;;5033303;28;20446;-78
2022/01/02 03:59:42;;;;;;;3.67;3.03;;;4.40;99.90;;;;;;5032773;28;20240;-78
2022/01/02 04:02:08;;;;;;;4.03;3.20;;;4.30;99.90;;;;;;5031387;28;20423;-77
2022/01/02 04:04:33;;;;;;;6.00;3.63;;;4.20;99.90;;;;;;5032576;28;20240;-78
2022/01/02 04:06:59;;;;;;;6.93;4.30;;;4.20;99.90;;;;;;5032109;28;20268;-79
2022/01/02 04:09:25;;;;;;;5.90;3.90;;;4.20;99.90;;;;;;5030715;28;20208;-78
2022/01/02 04:11:50;;;;;;;5.47;4.17;;;4.40;99.90;;;;;;5014258;28;20191;-77
2022/01/02 04:14:16;;;;;;;7.20;4.83;;;4.40;99.90;;;;;;5030925;28;20188;-77
2022/01/02 04:16:42;;;;;;;6.50;4.37;;;4.40;99.90;;;;;;5032375;28;20197;-78
2022/01/02 04:19:07;;;;;;;7.23;4.40;;;4.50;99.90;;;;;;5034058;28;20239;-79
2022/01/02 04:21:33;;;;;;;8.30;4.90;;;4.30;99.90;;;;;;5035049;28;20220;-79
2022/01/02 04:23:59;;;;;;;9.53;4.60;;;4.30;99.90;;;;;;5016817;28;20649;-79
2022/01/02 04:26:24;;;;;;;12.70;6.60;;;4.20;99.90;;;;;;5017695;28;20246;-80
2022/01/02 04:28:50;;;;;;;11.93;5.87;;;4.20;99.90;;;;;;5033148;28;20219;-79
2022/01/02 04:31:16;;;;;;;12.83;7.03;;;4.30;99.90;;;;;;5031818;28;20285;-79
2022/01/02 04:33:41;;;;;;;13.50;7.47;;;4.10;99.90;;;;;;5018749;28;20191;-78
2022/01/02 04:36:07;;;;;;;10.30;6.50;;;4.00;99.90;;;;;;5017820;28;20184;-78
2022/01/02 04:38:34;;;;;;;13.30;6.60;;;4.10;99.90;;;;;;5034308;28;20212;-79
2022/01/02 04:41:00;;;;;;;11.90;6.70;;;4.10;99.90;;;;;;5034740;28;20478;-78
2022/01/02 04:43:25;;;;;;;7.10;5.37;;;4.20;99.90;;;;;;5036970;28;20436;-78
2022/01/02 04:45:51;;;;;;;7.93;4.03;;;4.00;99.90;;;;;;5037451;28;20222;-78
2022/01/02 04:48:17;;;;;;;9.00;5.07;;;4.00;99.90;;;;;;5035167;28;20257;-78
2022/01/02 04:50:42;;;;;;;9.60;5.80;;;4.00;99.90;;;;;;5035526;28;20214;-78
2022/01/02 04:53:08;;;;;;;11.13;5.90;;;3.90;99.90;;;;;;5033629;28;20198;-78
2022/01/02 04:55:33;;;;;;;10.30;6.23;;;3.90;99.90;;;;;;5017262;28;20646;-78
2022/01/02 04:58:00;;;;;;;15.27;6.63;;;4.00;99.90;;;;;;5016935;28;20196;-78
2022/01/02 05:00:25;;;;;;;8.95;5.50;;;4.00;99.90;;;;;;5001009;28;20198;-78
2022/01/02 05:02:52;;;;;;;11.83;6.57;;;4.00;99.90;;;;;;5033517;28;20734;-77
2022/01/02 05:05:17;;;;;;;11.73;6.70;;;4.20;99.90;;;;;;5033409;28;20182;-79
2022/01/02 05:07:43;;;;;;;11.57;6.67;;;4.10;99.90;;;;;;5034641;28;20469;-78
2022/01/02 05:10:09;;;;;;;14.20;6.57;;;4.20;99.90;;;;;;5001790;28;20204;-77
2022/01/02 05:12:34;;;;;;;10.13;5.70;;;4.30;99.90;;;;;;5000703;28;20228;-79
2022/01/02 05:15:01;;;;;;;9.97;5.20;;;4.40;99.90;;;;;;5033504;28;20618;-78
2022/01/02 05:17:27;;;;;;;8.90;5.90;;;4.40;99.90;;;;;;5035184;28;20212;-79
2022/01/02 05:19:52;;;;;;;7.60;5.30;;;4.50;99.90;;;;;;5033595;28;20528;-76
2022/01/02 05:22:18;;;;;;;7.73;5.20;;;4.50;99.90;;;;;;5030971;28;20180;-76
2022/01/02 05:24:44;;;;;;;10.93;5.60;;;4.60;99.90;;;;;;5029490;28;20646;-77
2022/01/02 05:27:09;;;;;;;6.90;5.00;;;4.70;99.90;;;;;;5031088;28;20206;-77
2022/01/02 05:29:35;;;;;;;6.77;5.03;;;4.70;99.90;;;;;;5030647;28;20205;-78
2022/01/02 05:32:01;;;;;;;10.50;5.40;;;4.80;99.90;;;;;;5031475;28;20176;-78
2022/01/02 05:34:27;;;;;;;8.17;5.10;;;4.70;99.90;;;;;;5030143;28;20430;-77
2022/01/02 05:36:52;;;;;;;2.73;2.43;;;4.50;99.90;;;;;;5031272;28;20190;-77
2022/01/02 05:39:19;;;;;;;2.70;2.20;;;4.50;99.90;;;;;;5030586;28;20215;-78
2022/01/02 05:41:46;;;;;;;3.83;2.97;;;4.60;99.90;;;;;;5031007;28;20183;-77
2022/01/02 05:44:12;;;;;;;2.60;2.40;;;4.60;99.90;;;;;;5029114;28;21251;-77
2022/01/02 05:46:38;;;;;;;1.60;1.50;;;4.80;99.90;;;;;;5030573;28;20462;-77
2022/01/02 05:49:03;;;;;;;1.80;1.20;;;4.80;99.90;;;;;;5031257;28;21066;-78
2022/01/02 05:51:29;;;;;;;1.47;1.37;;;5.00;99.90;;;;;;5029354;28;20451;-78
2022/01/02 05:53:54;;;;;;;2.20;1.67;;;5.10;99.90;;;;;;5012567;28;20238;-78
2022/01/02 05:56:20;;;;;;;1.80;1.40;;;5.00;99.90;;;;;;5029434;28;20187;-78
2022/01/02 05:58:46;;;;;;;2.17;1.20;;;5.00;99.90;;;;;;5030520;28;20204;-77
2022/01/02 06:01:12;;;;;;;1.13;1.00;;;5.10;99.90;;;;;;5029267;28;20234;-76
2022/01/02 06:03:37;;;;;;;1.43;1.30;;;5.00;99.90;;;;;;5030232;28;20180;-76
2022/01/02 06:06:04;;;;;;;1.40;1.30;;;5.00;99.90;;;;;;5029785;28;20179;-76
2022/01/02 06:08:29;;;;;;;1.63;1.30;;;4.90;99.90;;;;;;5030423;28;20254;-78
2022/01/02 06:10:55;;;;;;;2.60;1.43;;;4.90;99.90;;;;;;5012778;28;20427;-76
2022/01/02 06:13:21;;;;;;;1.57;1.47;;;4.80;99.90;;;;;;5030686;28;20688;-79
2022/01/02 06:15:47;;;;;;;3.20;2.87;;;4.90;99.90;;;;;;5029349;28;20199;-77
2022/01/02 06:18:12;;;;;;;5.87;2.37;;;4.80;99.90;;;;;;5030920;28;20211;-79
2022/01/02 06:20:38;;;;;;;3.17;2.30;;;4.80;99.90;;;;;;5033834;28;20208;-78
2022/01/02 06:23:04;;;;;;;2.03;1.90;;;4.90;99.90;;;;;;5034152;28;20192;-77
2022/01/02 06:25:29;;;;;;;1.77;1.67;;;5.00;99.90;;;;;;5034908;28;20419;-79
2022/01/02 06:27:55;;;;;;;2.67;1.73;;;4.90;99.90;;;;;;5015150;28;20212;-79
2022/01/02 06:30:21;;;;;;;1.90;1.80;;;5.10;99.90;;;;;;5032952;28;20188;-78
2022/01/02 06:32:54;;;;;;;3.27;2.00;;;5.00;99.90;;;;;;5028897;28;20423;-76
2022/01/02 06:35:24;;;;;;;2.17;2.00;;;5.00;99.90;;;;;;5011887;28;20427;-75
2022/01/02 06:37:50;;;;;;;5.00;2.33;;;5.10;99.90;;;;;;5027641;28;20847;-76
2022/01/02 06:40:15;;;;;;;1.73;1.63;;;5.00;99.90;;;;;;5028719;28;20936;-76
2022/01/02 06:42:41;;;;;;;3.93;2.80;;;5.00;99.90;;;;;;5028700;28;20429;-76
2022/01/02 06:45:07;;;;;;;2.73;2.10;;;5.00;99.90;;;;;;5027256;28;20245;-76
2022/01/02 06:47:33;;;;;;;2.83;2.03;;;4.90;99.90;;;;;;5027061;28;20289;-77
2022/01/02 06:49:58;;;;;;;3.60;2.33;;;4.80;99.90;;;;;;5030766;28;21006;-75
2022/01/02 06:52:24;;;;;;;2.57;2.37;;;4.80;99.90;;;;;;5029444;28;20193;-76
2022/01/02 06:54:53;;;;;;;1.97;1.80;;;4.80;99.90;;;;;;5028914;28;20184;-75
2022/01/02 06:57:20;;;;;;;3.40;2.90;;;4.70;99.90;;;;;;5027024;28;20188;-77
2022/01/02 06:59:45;;;;;;;2.83;2.33;;;4.70;99.90;;;;;;5028376;28;20820;-76
2022/01/02 07:02:11;;;;;;;3.53;2.40;;;4.70;99.90;;;;;;5028505;28;20425;-76
2022/01/02 07:04:37;;;;;;;2.83;2.53;;;4.70;99.90;;;;;;5028479;28;20192;-75
2022/01/02 07:07:02;;;;;;;3.40;2.80;;;4.70;99.90;;;;;;5030773;28;20975;-76
2022/01/02 07:09:31;;;;;;;3.13;2.80;;;4.80;99.90;;;;;;5032417;28;20200;-75
2022/01/02 07:11:57;;;;;;;5.30;2.87;;;4.80;99.90;;;;;;5032716;28;20531;-75
2022/01/02 07:14:26;;;;;;;3.80;3.03;;;4.90;99.90;;;;;;5032664;28;20423;-75
2022/01/02 07:16:55;;;;;;;4.50;3.50;;;5.00;99.90;;;;;;5032819;28;20458;-75
2022/01/02 07:19:21;;;;;;;4.50;3.30;;;5.10;99.90;;;;;;5033036;28;20443;-76
2022/01/02 07:21:48;;;;;;;3.73;3.13;;;5.10;99.90;;;;;;5032431;28;20473;-76
2022/01/02 07:24:14;;;;;;;4.47;3.83;;;5.10;99.90;;;;;;5032267;28;20477;-75
2022/01/02 07:26:40;;;;;;;7.53;5.00;;;5.10;99.90;;;;;;5032202;28;20470;-76
2022/01/02 07:29:05;;;;;;;8.47;4.90;;;5.00;99.90;;;;;;5014734;28;20446;-75
2022/01/02 07:31:31;;;;;;;6.30;4.47;;;5.00;99.90;;;;;;5031699;28;20583;-75
2022/01/02 07:33:57;;;;;;;3.93;3.53;;;5.10;99.90;;;;;;5033135;28;20549;-76
2022/01/02 07:36:22;;;;;;;4.50;3.50;;;5.10;99.90;;;;;;5033002;28;20188;-76
2022/01/02 07:38:48;;;;;;;6.70;4.10;;;5.20;99.90;;;;;;5032907;28;20231;-76
2022/01/02 07:41:14;;;;;;;7.43;6.60;;;5.20;99.90;;;;;;5033119;28;20275;-76
2022/01/02 07:43:40;;;;;;;9.33;5.57;;;5.20;99.90;;;;;;5032793;28;20177;-76
2022/01/02 07:46:06;;;;;;;5.87;3.87;;;5.20;99.90;;;;;;5032774;28;20468;-76
2022/01/02 07:48:32;;;;;;;4.47;3.57;;;5.20;99.90;;;;;;5032532;28;20313;-76
2022/01/02 07:50:58;;;;;;;4.50;3.67;;;5.30;99.90;;;;;;5032375;28;20442;-76
2022/01/02 07:53:23;;;;;;;4.17;3.70;;;5.40;99.90;;;;;;5032748;28;20411;-76
2022/01/02 07:55:49;;;;;;;7.60;5.10;;;5.40;99.90;;;;;;5032707;28;20707;-76
2022/01/02 07:58:15;;;;;;;5.00;4.50;;;5.50;99.90;;;;;;5032731;28;20480;-76
2022/01/02 08:00:41;;;;;;;6.80;4.70;;;5.50;99.90;;;;;;5033068;28;20218;-76
2022/01/02 08:03:07;;;;;;;8.83;5.43;;;5.50;99.90;;;;;;5032469;28;20287;-76
2022/01/02 08:05:32;;;;;;;7.30;4.67;;;5.50;99.90;;;;;;5032446;28;20423;-74
2022/01/02 08:07:58;;;;;;;6.23;4.90;;;5.60;99.90;;;;;;5031762;28;21031;-76
2022/01/02 08:10:28;;;;;;;9.67;4.77;;;5.60;99.90;;;;;;5031870;28;20184;-77
2022/01/02 08:12:55;;;;;;;7.73;4.90;;;5.70;99.90;;;;;;5032351;28;20414;-76
2022/01/02 08:15:21;;;;;;;7.37;4.53;;;5.70;99.90;;;;;;5032780;28;20407;-75
2022/01/02 08:17:47;;;;;;;8.00;5.20;;;5.80;99.90;;;;;;5029663;28;20430;-76
2022/01/02 08:20:13;;;;;;;9.00;4.80;;;5.90;99.90;;;;;;5030237;28;20481;-75
2022/01/02 08:22:39;;;;;;;9.93;4.40;;;6.00;99.90;;;;;;5031526;28;20429;-76
2022/01/02 08:25:06;;;;;;;4.63;3.73;;;6.20;99.90;;;;;;5030385;28;20485;-75
2022/01/02 08:27:32;;;;;;;3.20;3.00;;;6.20;99.90;;;;;;5031677;28;20222;-76
2022/01/02 08:29:57;;;;;;;4.60;3.40;;;6.40;99.90;;;;;;5031008;28;20807;-75
2022/01/02 08:32:23;;;;;;;7.27;5.00;;;6.60;99.90;;;;;;5030997;28;20419;-76
2022/01/02 08:34:49;;;;;;;6.03;4.17;;;6.70;99.90;;;;;;5031229;28;20175;-76
2022/01/02 08:37:15;;;;;;;8.67;4.20;;;7.20;99.90;;;;;;5029736;28;20224;-77
2022/01/02 08:39:45;;;;;;;5.00;4.07;;;7.80;99.90;;;;;;5031050;28;20223;-77
2022/01/02 08:42:14;;;;;;;5.00;3.43;;;8.50;99.90;;;;;;5029506;28;20427;-76
2022/01/02 08:44:43;;;;;;;3.17;2.87;;;8.80;99.90;;;;;;5030914;28;20423;-76
2022/01/02 08:47:09;;;;;;;3.73;3.17;;;8.90;99.90;;;;;;5030926;28;20473;-76
2022/01/02 08:49:35;;;;;;;4.70;3.00;;;8.80;99.90;;;;;;5030860;28;20431;-75
2022/01/02 08:52:01;;;;;;;3.93;3.03;;;8.70;99.90;;;;;;5029586;28;20524;-75
2022/01/02 08:54:27;;;;;;;2.93;2.63;;;9.00;99.90;;;;;;5029326;28;20828;-76
2022/01/02 08:56:52;;;;;;;4.70;4.23;;;9.60;99.90;;;;;;5029201;28;20184;-76
2022/01/02 08:59:24;;;;;;;4.50;3.97;;;10.70;99.90;;;;;;5029246;28;20237;-75
2022/01/02 09:01:50;;;;;;;5.37;3.90;;;11.40;99.90;;;;;;5029502;28;20196;-75
2022/01/02 09:04:16;;;;;;;5.90;5.40;;;11.30;99.90;;;;;;5029106;28;20419;-75
2022/01/02 09:06:42;;;;;;;5.60;5.10;;;11.20;99.90;;;;;;5029036;28;20994;-75
2022/01/02 09:09:08;;;;;;;8.27;5.57;;;11.30;99.90;;;;;;5027444;28;20249;-76
2022/01/02 09:11:34;;;;;;;8.20;4.70;;;11.20;99.90;;;;;;5029053;28;21221;-76
2022/01/02 09:14:02;;;;;;;6.63;4.80;;;11.10;99.90;;;;;;5028965;28;20187;-75
2022/01/02 09:16:28;;;;;;;5.13;4.63;;;11.00;99.90;;;;;;5028978;28;20590;-75
2022/01/02 09:18:54;;;;;;;6.90;4.60;;;10.90;99.90;;;;;;5029130;28;20441;-75
2022/01/02 09:21:19;;;;;;;11.33;4.83;;;10.70;99.90;;;;;;5027646;28;20419;-75
2022/01/02 09:23:45;;;;;;;7.50;5.07;;;10.50;99.90;;;;;;5029182;28;20191;-76
2022/01/02 09:26:11;;;;;;;4.87;4.10;;;10.30;99.90;;;;;;5028961;28;20178;-76
2022/01/02 09:28:37;;;;;;;5.20;3.80;;;10.20;99.90;;;;;;5028038;28;20592;-77
2022/01/02 09:31:03;;;;;;;5.80;4.63;;;10.40;99.90;;;;;;5028666;28;20420;-76
2022/01/02 09:33:28;;;;;;;5.40;4.73;;;10.50;99.90;;;;;;5027454;28;20428;-73
2022/01/02 09:35:54;;;;;;;6.33;5.67;;;10.60;99.90;;;;;;5027228;28;20277;-76
2022/01/02 09:38:20;;;;;;;6.03;5.43;;;10.60;99.90;;;;;;5026923;28;20583;-75
2022/01/02 09:40:46;;;;;;;10.10;4.53;;;10.70;99.90;;;;;;5028719;28;20668;-75
2022/01/02 09:43:12;;;;;;;6.23;4.80;;;10.90;99.90;;;;;;5028727;28;20241;-74
2022/01/02 09:45:38;;;;;;;9.07;5.20;;;11.00;99.90;;;;;;5029160;28;20422;-74
2022/01/02 09:48:05;;;;;;;5.37;4.60;;;10.80;99.90;;;;;;5029091;28;20934;-73
2022/01/02 09:50:32;;;;;;;5.43;4.80;;;10.80;99.90;;;;;;5028748;28;20805;-76
2022/01/02 09:52:58;;;;;;;4.80;4.03;;;10.80;99.90;;;;;;5028951;28;20419;-75
2022/01/02 09:55:24;;;;;;;4.53;3.30;;;11.20;99.90;;;;;;5028756;28;20435;-75
2022/01/02 09:57:52;;;;;;;3.47;3.17;;;12.50;99.90;;;;;;5028582;28;20934;-76
2022/01/02 10:00:19;;;;;;;5.00;3.97;;;12.70;99.90;;;;;;5027157;28;20242;-75
2022/01/02 10:03:06;;;;;;;8.07;6.50;;;12.30;99.90;;;;;;5028733;28;20426;-75
2022/01/02 10:05:53;;;;;;;15.90;10.20;;;11.70;99.90;;;;;;5028183;28;20426;-76
2022/01/02 10:08:25;;;;;;;17.73;9.60;;;11.10;99.90;;;;;;5028434;28;21334;-76
2022/01/02 10:11:19;;;;;;;13.87;8.83;;;10.50;99.90;;;;;;5026632;28;20445;-76
2022/01/02 10:14:01;;;;;;;11.97;7.50;;;10.30;99.90;;;;;;5028153;28;20909;-74
2022/01/02 10:16:33;;;;;;;13.43;8.03;;;10.50;99.90;;;;;;5028066;28;20794;-76
2022/01/02 10:19:02;;;;;;;15.23;9.87;;;10.90;99.90;;;;;;5028296;28;20952;-75
2022/01/02 10:21:35;;;;;;;11.70;8.50;;;11.30;99.90;;;;;;5028305;28;20421;-74
2022/01/02 10:24:21;;;;;;;10.00;6.87;;;11.70;99.90;;;;;;5028120;28;20499;-75
2022/01/02 10:27:05;;;;;;;9.47;6.50;;;12.20;99.90;;;;;;5027883;28;20460;-76
2022/01/02 10:29:45;;;;;;;10.53;6.57;;;12.20;99.90;;;;;;5027815;28;20437;-74
2022/01/02 10:32:33;;;;;;;16.03;11.20;;;11.90;99.90;;;;;;5026093;28;20421;-74
2022/01/02 10:35:23;;;;;;;16.17;10.50;;;11.70;99.90;;;;;;5027861;28;20516;-76
2022/01/02 10:37:51;;;;;;;16.93;11.70;;;11.50;99.90;;;;;;5026267;28;20429;-76
2022/01/02 10:40:23;;;;;;;11.40;7.83;;;11.20;99.90;;;;;;5027510;28;20891;-75
2022/01/02 10:42:49;;;;;;;8.07;6.60;;;11.00;99.90;;;;;;5027521;28;20509;-75
2022/01/02 10:45:31;;;;;;;14.43;8.60;;;10.80;99.90;;;;;;5027493;28;20515;-75
2022/01/02 10:47:57;;;;;;;11.03;7.90;;;10.70;99.90;;;;;;5027335;28;20235;-75
2022/01/02 10:50:22;;;;;;;9.60;6.63;;;10.60;99.90;;;;;;5027571;28;20518;-76
2022/01/02 10:52:48;;;;;;;8.07;5.57;;;10.30;99.90;;;;;;5027247;28;20695;-75
2022/01/02 10:55:23;;;;;;;8.50;6.73;;;10.30;99.90;;;;;;5027304;28;20190;-75
2022/01/02 10:57:52;;;;;;;8.33;6.10;;;10.40;99.90;;;;;;5027828;28;20668;-75
2022/01/02 11:00:20;;;;;;;28.00;13.30;;;10.50;99.90;;;;;;5027381;28;20432;-75
2022/01/02 11:02:46;;;;;;;2.00;1.87;;;10.70;99.90;;;;;;5027289;28;20942;-75
2022/01/02 11:05:15;;;;;;;1.50;1.30;;;10.90;99.90;;;;;;5027450;28;20417;-74
2022/01/02 11:07:42;;;;;;;1.10;1.00;;;11.40;96.50;;;;;;5025199;28;20499;-75
2022/01/02 11:10:19;;;;;;;2.17;1.17;;;11.90;93.80;;;;;;5027013;28;20953;-74
2022/01/02 11:12:46;;;;;;;10.23;1.30;;;12.30;92.50;;;;;;5025490;28;21395;-75
2022/01/02 11:15:15;;;;;;;1.40;1.30;;;12.30;93.80;;;;;;5027480;28;20432;-77
2022/01/02 11:17:40;;;;;;;2.37;1.70;;;12.30;95.40;;;;;;5026953;28;21213;-75
2022/01/02 11:20:08;;;;;;;1.77;1.33;;;12.40;93.20;;;;;;5027105;28;20454;-76
2022/01/02 11:23:07;;;;;;;2.03;1.80;;;12.30;94.20;;;;;;5026956;28;20243;-75
2022/01/02 11:25:42;;;;;;;1.90;1.50;;;12.30;94.10;;;;;;5027330;28;20769;-75
2022/01/02 11:28:22;;;;;;;1.57;1.30;;;12.40;93.70;;;;;;5027464;28;20976;-75
2022/01/02 11:30:50;;;;;;;2.43;1.50;;;12.50;92.30;;;;;;5027164;28;20432;-74
2022/01/02 11:33:19;;;;;;;2.10;1.60;;;12.50;93.90;;;;;;5027780;28;20792;-74
2022/01/02 11:35:49;;;;;;;3.10;2.77;;;12.50;93.20;;;;;;5027223;28;20485;-74
2022/01/02 11:38:17;;;;;;;1.97;1.77;;;12.60;91.50;;;;;;5026763;28;20457;-75
2022/01/02 11:40:57;;;;;;;1.53;1.33;;;12.70;92.10;;;;;;5027107;28;20484;-77
2022/01/02 11:43:35;;;;;;;1.70;1.23;;;12.80;91.00;;;;;;5027108;28;20432;-77
2022/01/02 11:46:22;;;;;;;2.43;2.23;;;13.00;90.10;;;;;;5028938;28;20426;-78
2022/01/02 11:49:04;;;;;;;1.83;1.50;;;13.10;88.50;;;;;;5027604;28;20491;-77
2022/01/02 11:51:50;;;;;;;1.90;1.70;;;13.20;88.10;;;;;;5027229;28;20487;-77
2022/01/02 11:57:25;;;;;;;1.77;1.33;;;13.30;86.30;;;;;;5031155;28;20418;-77
2022/01/02 11:59:52;;;;;;;1.00;0.90;;;13.40;85.90;;;;;;5030838;28;20514;-79
2022/01/02 12:02:26;;;;;;;2.07;1.37;;;13.50;82.90;;;;;;5030933;28;20915;-76
2022/01/02 12:05:18;;;;;;;1.20;1.10;;;13.50;83.90;;;;;;5029752;28;20771;-77
2022/01/02 12:07:55;;;;;;;1.37;1.27;;;13.50;83.60;;;;;;5029445;28;20475;-78
2022/01/02 12:10:47;;;;;;;2.30;1.40;;;13.40;88.70;;;;;;5029655;28;20470;-77
2022/01/02 12:13:18;;;;;;;1.67;1.57;;;13.30;88.10;;;;;;5028561;28;20451;-77
2022/01/02 12:15:44;;;;;;;1.73;1.60;;;13.30;90.00;;;;;;5028167;28;20960;-77
2022/01/02 12:18:23;;;;;;;1.97;1.87;;;13.40;86.30;;;;;;5029553;28;20504;-78
2022/01/02 12:23:36;;;;;;;2.10;1.90;;;13.40;86.70;;;;;;5030560;28;20430;-75
2022/01/02 12:26:01;;;;;;;1.70;1.60;;;13.40;87.30;;;;;;5029889;28;20894;-76
2022/01/02 12:28:36;;;;;;;1.63;1.37;;;13.50;88.20;;;;;;5029582;28;20508;-75
2022/01/02 12:31:01;;;;;;;4.10;1.80;;;13.60;89.60;;;;;;5029682;28;20179;-75
2022/01/02 12:33:30;;;;;;;1.40;1.30;;;13.70;86.40;;;;;;5028315;28;20427;-75
2022/01/02 12:35:56;;;;;;;1.70;1.60;;;13.70;85.40;;;;;;5027885;28;20664;-75
2022/01/02 12:38:22;;;;;;;3.27;2.47;;;13.80;85.10;;;;;;5029522;28;20482;-77
2022/01/02 12:40:49;;;;;;;1.83;1.53;;;13.80;88.70;;;;;;5029398;28;20964;-76
2022/01/02 12:43:23;;;;;;;1.67;1.30;;;13.90;86.50;;;;;;5029663;28;20184;-75
2022/01/02 12:45:55;;;;;;;2.30;1.90;;;13.90;86.80;;;;;;5029520;28;20463;-75
2022/01/02 12:48:34;;;;;;;1.97;1.87;;;14.00;88.00;;;;;;5027526;28;20478;-75
2022/01/02 12:51:14;;;;;;;2.07;1.63;;;13.90;87.70;;;;;;5028936;28;20958;-75
2022/01/02 12:53:40;;;;;;;1.73;1.40;;;13.80;89.00;;;;;;5028848;28;20556;-76
2022/01/02 12:56:06;;;;;;;1.53;1.43;;;13.80;90.10;;;;;;5028837;28;20506;-77
2022/01/02 12:58:34;;;;;;;2.30;1.73;;;13.80;89.10;;;;;;5027749;28;20216;-75
2022/01/02 13:01:06;;;;;;;2.27;2.07;;;13.90;88.30;;;;;;5028678;28;20465;-75
2022/01/02 13:03:31;;;;;;;1.80;1.70;;;13.90;89.40;;;;;;5028671;28;20480;-76
2022/01/02 13:05:58;;;;;;;2.20;1.63;;;13.90;87.50;;;;;;5028584;28;20427;-76
2022/01/02 13:08:26;;;;;;;3.40;2.20;;;13.90;86.40;;;;;;5028584;28;20265;-76
2022/01/02 13:10:52;;;;;;;2.30;2.10;;;14.00;88.30;;;;;;5027324;28;20524;-77